Flight Track Log - Related Links

Times and Time Zones

All times are in EDT time to prevent confusion due to time zone crossing. See the ABX921 flight status page for this flight to view local times or setup timezone preferences in your user account.


Time Position Orientation Groundspeed Altitude Reporting Facility
EDT Latitude Longitude Course Direction KTS MPH feet Rate Location/Type
Fri 11:15:01 PM 26.2336 -97.6219 49° Northeast 162 186 2,100  Level Houston Center
Fri 11:16:02 PM 26.2892 -97.6122 North 225 259 3,700 1,967 Climbing Houston Center
Fri 11:17:03 PM 26.3603 -97.6072 North 265 305 6,100 2,465 Climbing Houston Center
Fri 11:18:11 PM 26.4464 -97.5975 North 266 306 9,000 2,233 Climbing Houston Center
Fri 11:19:12 PM 26.5317 -97.5883 North 285 328 10,900 1,918 Climbing Houston Center
Fri 11:20:13 PM 26.6269 -97.5783 North 341 392 12,900 2,410 Climbing Houston Center
Fri 11:21:14 PM 26.7228 -97.5669 North 350 403 15,800 2,164 Climbing Houston Center
Fri 11:22:15 PM 26.8253 -97.5083 27° Northeast 394 453 17,300 1,328 Climbing Houston Center
Fri 11:23:16 PM 26.9300 -97.4292 34° Northeast 451 519 18,500 1,475 Climbing Houston Center
Fri 11:24:17 PM 27.0322 -97.3508 34° Northeast 468 539 20,300 1,721 Climbing Houston Center
Fri 11:25:18 PM 27.1436 -97.2658 34° Northeast 478 550 22,000 1,623 Climbing Houston Center
Fri 11:26:19 PM 27.2594 -97.1783 34° Northeast 493 567 23,600 1,636 Climbing Houston Center
Fri 11:27:19 PM 27.3761 -97.0900 34° Northeast 503 579 25,300 1,835 Climbing Houston Center
Fri 11:28:20 PM 27.5017 -96.9936 34° Northeast 506 582 27,300 1,869 Climbing Houston Center
Fri 11:29:21 PM 27.6175 -96.9042 34° Northeast 506 582 29,100 1,869 Climbing Houston Center
Fri 11:30:22 PM 27.7328 -96.8167 34° Northeast 502 578 31,100 1,869 Climbing Houston Center
Fri 11:31:23 PM 27.8467 -96.7294 34° Northeast 497 572 32,900 1,672 Climbing Houston Center
Fri 11:32:24 PM 27.9575 -96.6408 35° Northeast 492 566 34,500 1,377 Climbing Houston Center
Fri 11:33:25 PM 28.0681 -96.5547 34° Northeast 484 557 35,700 1,240 Climbing Houston Center
Fri 11:34:25 PM 28.2050 -96.4500 34° Northeast 496 571 37,000 645 Climbing Houston Center
Fri 11:35:26 PM 28.3192 -96.3636 34° Northeast 496 571 37,000  Level Houston Center
Fri 11:36:27 PM 28.4331 -96.2753 34° Northeast 497 572 37,000  Level Houston Center
Fri 11:37:28 PM 28.5464 -96.1853 35° Northeast 498 573 37,000  Level Houston Center
Fri 11:38:29 PM 28.6589 -96.0967 35° Northeast 496 571 37,000  Level Houston Center
Fri 11:39:30 PM 28.7703 -96.0081 35° Northeast 492 566 37,000  Level Houston Center
Fri 11:40:30 PM 28.8917 -95.9114 35° Northeast 491 565 37,000  Level Houston Center
Fri 11:41:31 PM 29.0033 -95.8233 35° Northeast 488 562 37,000  Level Houston Center
Fri 11:42:32 PM 29.1172 -95.7339 34° Northeast 494 568 37,000  Level Houston Center
Fri 11:43:33 PM 29.2297 -95.6433 35° Northeast 494 568 37,000  Level Houston Center
Fri 11:44:33 PM 29.3433 -95.5528 35° Northeast 497 572 37,000  Level Houston Center
Fri 11:45:34 PM 29.4572 -95.4625 35° Northeast 496 571 37,000  Level Houston Center
Fri 11:46:35 PM 29.5728 -95.3711 35° Northeast 500 575 37,000  Level Houston Center
Fri 11:47:36 PM 29.6906 -95.2767 35° Northeast 501 577 37,000  Level Houston Center
Fri 11:48:36 PM 29.8078 -95.1822 35° Northeast 501 577 37,000  Level Houston Center
Fri 11:49:37 PM 29.9178 -95.0908 36° Northeast 486 559 37,000  Level Houston Center
Fri 11:50:38 PM 30.0283 -94.9994 36° Northeast 485 558 37,000  Level Houston Center
Fri 11:51:38 PM 30.1400 -94.9075 35° Northeast 489 563 37,000  Level Houston Center
Fri 11:52:39 PM 30.2525 -94.8147 35° Northeast 494 568 37,000  Level Houston Center
Fri 11:53:39 PM 30.3656 -94.7217 35° Northeast 497 572 37,000  Level Houston Center
Fri 11:54:40 PM 30.4747 -94.6317 35° Northeast 496 571 37,000  Level Houston Center
Fri 11:55:41 PM 30.5875 -94.5394 35° Northeast 494 568 37,000  Level Houston Center
Fri 11:56:41 PM 30.7031 -94.4450 35° Northeast 497 572 37,000  Level Houston Center
Fri 11:57:42 PM 30.8122 -94.3531 36° Northeast 496 571 37,000  Level Houston Center
Fri 11:58:42 PM 30.9481 -94.2403 35° Northeast 500 575 37,000  Level Houston Center
Fri 11:59:43 PM 31.0611 -94.1453 36° Northeast 503 579 37,000  Level Houston Center
Sat 12:00:43 AM 31.1750 -94.0503 36° Northeast 504 580 37,000  Level Houston Center
Sat 12:01:44 AM 31.2875 -93.9556 36° Northeast 502 578 37,000  Level Houston Center
Sat 12:02:44 AM 31.4014 -93.8603 36° Northeast 504 580 37,000  Level Houston Center
Sat 12:03:45 AM 31.5172 -93.7622 36° Northeast 504 580 37,000  Level Houston Center
Sat 12:04:45 AM 31.6286 -93.6678 36° Northeast 505 581 37,000  Level Houston Center
Sat 12:05:27 AM 31.7008 -93.6092 35° Northeast 494 568 37,000  Level Fort Worth Center
Sat 12:06:27 AM 31.8150 -93.5142 35° Northeast 494 568 37,000  Level Fort Worth Center
Sat 12:07:27 AM 31.9286 -93.4164 36° Northeast 494 568 37,000  Level Fort Worth Center
Sat 12:08:27 AM 32.0364 -93.3208 37° Northeast 494 568 37,000  Level Fort Worth Center
Sat 12:09:27 AM 32.1481 -93.2253 36° Northeast 494 568 37,000 100 Level Fort Worth Center
Sat 12:10:27 AM 32.2714 -93.1114 38° Northeast 501 577 37,200 500 Climbing Fort Worth Center
Sat 12:11:27 AM 32.3731 -93.0328 33° Northeast 496 571 38,000 671 Climbing Fort Worth Center
Sat 12:13:08 AM 32.5719 -92.8494 38° Northeast 534 615 39,000 373 Climbing Memphis Center
Sat 12:14:08 AM 32.6847 -92.7492 37° Northeast 522 601 39,000  Level Memphis Center
Sat 12:15:08 AM 32.7950 -92.6506 37° Northeast 504 580 39,000  Level Memphis Center
Sat 12:16:08 AM 32.9094 -92.5522 36° Northeast 504 580 39,000  Level Memphis Center
Sat 12:17:08 AM 33.0197 -92.4533 37° Northeast 504 580 39,000  Level Memphis Center
Sat 12:18:08 AM 33.1342 -92.3542 36° Northeast 499 574 39,000  Level Memphis Center
Sat 12:19:08 AM 33.2483 -92.2550 36° Northeast 499 574 39,000  Level Memphis Center
Sat 12:20:08 AM 33.3583 -92.1528 38° Northeast 505 581 39,000  Level Memphis Center
Sat 12:21:08 AM 33.4767 -92.0533 35° Northeast 512 589 39,000  Level Memphis Center
Sat 12:22:08 AM 33.5886 -91.9506 37° Northeast 512 589 39,000  Level Memphis Center
Sat 12:23:08 AM 33.7028 -91.8428 38° Northeast 512 589 39,000  Level Memphis Center
Sat 12:24:08 AM 33.8186 -91.7422 36° Northeast 512 589 39,000  Level Memphis Center
Sat 12:25:08 AM 33.9325 -91.6364 38° Northeast 512 589 39,000  Level Memphis Center
Sat 12:26:08 AM 34.0461 -91.5328 37° Northeast 512 589 39,000  Level Memphis Center
Sat 12:27:08 AM 34.1619 -91.4317 36° Northeast 512 589 39,000  Level Memphis Center
Sat 12:28:08 AM 34.2753 -91.3300 37° Northeast 512 589 39,000  Level Memphis Center
Sat 12:29:08 AM 34.3889 -91.2231 38° Northeast 512 589 39,000  Level Memphis Center
Sat 12:30:08 AM 34.5000 -91.1208 37° Northeast 507 583 39,000  Level Memphis Center
Sat 12:31:08 AM 34.5986 -91.0283 38° Northeast 509 586 39,000  Level Memphis Center
Sat 12:32:08 AM 34.7119 -90.9256 37° Northeast 509 586 39,000  Level Memphis Center
Sat 12:33:08 AM 34.8250 -90.8200 37° Northeast 509 586 39,000  Level Memphis Center
Sat 12:34:08 AM 34.9381 -90.7169 37° Northeast 509 586 39,000  Level Memphis Center
Sat 12:35:08 AM 35.0467 -90.6108 39° Northeast 509 586 39,000  Level Memphis Center
Sat 12:36:08 AM 35.1700 -90.4967 37° Northeast 509 586 39,000  Level Memphis Center
Sat 12:37:08 AM 35.2828 -90.3900 38° Northeast 509 586 39,000  Level Memphis Center
Sat 12:38:08 AM 35.3933 -90.2831 38° Northeast 509 586 39,000  Level Memphis Center
Sat 12:39:08 AM 35.5058 -90.1761 38° Northeast 509 586 39,000  Level Memphis Center
Sat 12:40:08 AM 35.6181 -90.0683 38° Northeast 509 586 39,000  Level Memphis Center
Sat 12:41:08 AM 35.7222 -89.9633 39° Northeast 501 577 39,000  Level Memphis Center
Sat 12:42:08 AM 35.8322 -89.8578 38° Northeast 496 571 39,000  Level Memphis Center
Sat 12:43:08 AM 35.9444 -89.7494 38° Northeast 496 571 39,000  Level Memphis Center
Sat 12:44:08 AM 36.0522 -89.6458 38° Northeast 496 571 39,000  Level Memphis Center
Sat 12:45:08 AM 36.1622 -89.5394 38° Northeast 496 571 39,000  Level Memphis Center
Sat 12:46:08 AM 36.2697 -89.4356 38° Northeast 496 571 39,000  Level Memphis Center
Sat 12:47:08 AM 36.3753 -89.3336 38° Northeast 503 579 39,000  Level Memphis Center
Sat 12:48:08 AM 36.4828 -89.2239 39° Northeast 501 577 39,000  Level Memphis Center
Sat 12:49:08 AM 36.5903 -89.1192 38° Northeast 506 582 39,000  Level Memphis Center
Sat 12:50:08 AM 36.6953 -89.0114 39° Northeast 501 577 39,000  Level Memphis Center
Sat 12:51:08 AM 36.8025 -88.9058 38° Northeast 491 565 39,000  Level Memphis Center
Sat 12:52:08 AM 36.9094 -88.7975 39° Northeast 486 559 39,000  Level Memphis Center
Sat 12:53:08 AM 37.0167 -88.6942 38° Northeast 491 565 39,000  Level Memphis Center
Sat 12:54:57 AM 37.2119 -88.4956 39° Northeast 498 573 39,000  Level Indianapolis Center
Sat 12:55:58 AM 37.3206 -88.3881 38° Northeast 493 567 39,000  Level Indianapolis Center
Sat 12:56:58 AM 37.4297 -88.2781 39° Northeast 497 572 39,000  Level Indianapolis Center
Sat 12:57:58 AM 37.5358 -88.1703 39° Northeast 489 563 39,000  Level Indianapolis Center
Sat 12:58:59 AM 37.6375 -88.0550 42° Northeast 489 563 39,000  Level Indianapolis Center
Sat 12:59:59 AM 37.7053 -87.9108 59° Northeast 476 548 39,000  Level Indianapolis Center
Sat 01:00:59 AM 37.7667 -87.7619 62° Northeast 474 545 39,000  Level Indianapolis Center
Sat 01:02:00 AM 37.8261 -87.6158 63° Northeast 476 548 39,000  Level Indianapolis Center
Sat 01:03:00 AM 37.8861 -87.4658 63° Northeast 477 549 39,000  Level Indianapolis Center
Sat 01:04:01 AM 37.9461 -87.3158 63° Northeast 478 550 39,000  Level Indianapolis Center
Sat 01:05:01 AM 38.0056 -87.1678 63° Northeast 475 547 39,000  Level Indianapolis Center
Sat 01:06:01 AM 38.0644 -87.0192 63° Northeast 476 548 39,000  Level Indianapolis Center
Sat 01:07:02 AM 38.1231 -86.8711 63° Northeast 476 548 39,000  Level Indianapolis Center
Sat 01:08:02 AM 38.1822 -86.7214 63° Northeast 478 550 39,000 -150 Level Indianapolis Center
Sat 01:09:02 AM 38.2411 -86.5722 63° Northeast 477 549 38,700 -1,339 Descending Indianapolis Center
Sat 01:10:03 AM 38.3006 -86.4239 63° Northeast 472 543 36,300 -2,331 Descending Indianapolis Center
Sat 01:11:03 AM 38.3714 -86.2817 58° Northeast 474 545 34,000 -3,074 Descending Indianapolis Center
Sat 01:12:04 AM 38.4450 -86.1414 56° Northeast 475 547 30,100 -4,264 Descending Indianapolis Center
Sat 01:13:04 AM 38.5203 -85.9978 56° Northeast 484 557 25,400 -4,150 Descending Indianapolis Center
Sat 01:14:04 AM 38.5961 -85.8514 56° Northeast 492 566 21,800 -3,620 Descending Indianapolis Center
Sat 01:15:05 AM 38.6772 -85.6944 56° Northeast 463 533 18,100 -3,372 Descending Indianapolis Center
Sat 01:16:05 AM 38.7456 -85.5636 56° Northeast 448 516 15,000 -2,950 Descending Indianapolis Center
Sat 01:17:05 AM 38.8075 -85.4392 57° Northeast 422 486 12,200 -1,983 Descending Indianapolis Center
Sat 01:18:06 AM 38.8689 -85.3264 55° Northeast 393 452 11,000 -843 Descending Indianapolis Center
Sat 01:19:06 AM 38.9550 -85.3006 13° North 338 389 10,500 -800 Descending Indianapolis Center
Sat 01:20:06 AM 39.0292 -85.2747 15° North 299 344 9,400 -1,041 Descending Indianapolis Center
Sat 01:21:07 AM 39.0472 -85.2000 73° East 226 260 8,400 -1,028 Descending Indianapolis Center
Sat 01:23:07 AM 39.0464 -85.0717 90° East 179 206 6,300 -862 Descending Indianapolis Center
Sat 01:24:08 AM 39.0464 -85.0089 90° East 177 204 5,800 -744 Descending Indianapolis Center
Sat 01:25:08 AM 39.0458 -84.9461 91° East 177 204 4,800 -1,039 Descending Indianapolis Center
Sat 01:26:15 AM 39.0500 -84.8667 86° East 171 197 3,600 -945 Descending Cincinnati TRACON
Sat 01:27:15 AM 39.0500 -84.8167 90° East 156 180 2,800 -800 Descending Cincinnati TRACON
Sat 01:28:15 AM 39.0500 -84.7500 90° East 145 167 2,000 -750 Descending Cincinnati TRACON
Sat 01:29:15 AM 39.0500 -84.7167 90° East 120 138 1,300 550 Descending Cincinnati TRACON
Sat 01:30:15 AM 39.0500 -84.6667 90° East 161 185 3,100 1,350 Climbing Cincinnati TRACON
Sat 01:31:15 AM 39.0500 -84.6000 90° East 185 213 4,000 450 Climbing Cincinnati TRACON
Sat 01:32:15 AM 39.1000 -84.5833 15° North 216 249 4,000  Level Cincinnati TRACON
Sat 01:32:58 AM 39.1397 -84.5772 North 209 241 4,000  Level Indianapolis Center
Sat 01:33:59 AM 39.1911 -84.6000 341° North 219 252 4,000  Level Indianapolis Center
Sat 01:34:59 AM 39.1892 -84.6683 268° West 200 230 4,000  Level Indianapolis Center
Sat 01:35:15 AM 39.1833 -84.7000 257° West 187 215 4,000  Level Cincinnati TRACON
Sat 01:36:15 AM 39.1833 -84.7667 270° West 188 216 4,000  Level Cincinnati TRACON
Sat 01:37:15 AM 39.1833 -84.8333 270° West 189 217 4,000  Level Cincinnati TRACON
Sat 01:38:00 AM 39.1811 -84.8783 266° West 189 217 4,000 57 Level Indianapolis Center
Sat 01:39:00 AM 39.1700 -84.9361 256° West 195 224 4,100  Climbing Indianapolis Center
Sat 01:40:00 AM 39.1272 -84.9397 184° South 174 200 4,000 -300 Descending Indianapolis Center
Sat 01:41:00 AM 39.0983 -84.9378 177° South 156 180 3,500 -213 Descending Indianapolis Center
Sat 01:42:21 AM 39.0667 -84.8667 120° Southeast 152 175 3,500 -298 Level Cincinnati TRACON
Sat 01:43:21 AM 39.0500 -84.8167 113° Southeast 142 163 2,800 -700 Descending Cincinnati TRACON

Login

Don't have an account? Register now (free) for customized features, flight alerts, and more!